Time;durP1;ratioP1;P1;durP2;ratioP2;P2;SDS_P1;SDS_P2;PMS_P1;PMS_P2;Temp;Humidity;BMP_temperature;BMP_pressure;BME280_temperature;BME280_humidity;BME280_pressure;Samples;Min_cycle;Max_cycle;Signal;HPM_P1;HPM_P2
2021/08/16 06:01:20;;;;;;;33.33;16.32;;;;;;;24.82;93.69;99242.77;1870780;75;27683;-66
2021/08/16 06:03:47;;;;;;;18.17;12.43;;;;;;;24.93;92.64;99238.30;1853545;77;21450;-68
2021/08/16 06:06:14;;;;;;;37.87;14.47;;;;;;;25.24;90.87;99247.66;1850132;77;22744;-67
2021/08/16 06:08:40;;;;;;;26.97;14.58;;;;;;;25.21;87.41;99249.75;1851295;77;20925;-67
2021/08/16 06:11:07;;;;;;;22.73;13.00;;;;;;;25.35;88.55;99257.48;1849053;76;21431;-67
2021/08/16 06:13:37;;;;;;;25.40;13.10;;;;;;;25.50;88.59;99253.08;1847589;77;21356;-67
2021/08/16 06:16:04;;;;;;;21.75;11.97;;;;;;;25.71;84.11;99256.85;1819353;77;20929;-66
2021/08/16 06:18:32;;;;;;;25.23;13.22;;;;;;;25.98;83.00;99252.30;1847804;77;21279;-67
2021/08/16 06:20:59;;;;;;;17.98;11.73;;;;;;;25.65;83.76;99253.61;1841591;76;20881;-67
2021/08/16 06:23:25;;;;;;;23.80;11.83;;;;;;;26.11;81.90;99261.17;1858828;77;21429;-66
2021/08/16 06:25:53;;;;;;;26.00;11.08;;;;;;;26.26;80.02;99261.63;1858833;77;20833;-67
2021/08/16 06:28:21;;;;;;;21.10;11.43;;;;;;;26.40;77.73;99258.34;1856547;77;20913;-67
2021/08/16 06:30:47;;;;;;;16.85;11.53;;;;;;;26.25;77.34;99259.47;1855589;77;21157;-67
2021/08/16 06:33:14;;;;;;;21.95;10.05;;;;;;;26.47;78.10;99260.63;1854818;77;21407;-67
2021/08/16 06:35:42;;;;;;;20.82;10.38;;;;;;;26.67;75.59;99272.38;1826762;77;21505;-67
2021/08/16 06:38:12;;;;;;;18.65;11.12;;;;;;;26.69;74.74;99267.89;1852935;77;20896;-68
2021/08/16 06:40:37;;;;;;;12.98;9.18;;;;;;;26.81;75.35;99266.32;1827041;77;20890;-67
2021/08/16 06:43:05;;;;;;;20.62;10.13;;;;;;;26.44;76.75;99266.88;1819416;78;21141;-68
2021/08/16 06:45:31;;;;;;;20.27;10.60;;;;;;;27.10;76.70;99268.13;1811394;78;20893;-66
2021/08/16 06:47:59;;;;;;;16.37;10.35;;;;;;;27.31;72.11;99274.53;1812573;77;20896;-68
2021/08/16 06:50:25;;;;;;;;;;;;;;;27.52;71.90;99277.58;1815185;78;20950;-68
2021/08/16 06:52:52;;;;;;;20.83;9.67;;;;;;;27.64;72.48;99279.89;1816346;78;20109;-67
2021/08/16 06:55:20;;;;;;;16.20;9.13;;;;;;;27.88;71.25;99277.23;1819917;78;20954;-68
2021/08/16 06:57:49;;;;;;;16.70;8.55;;;;;;;28.07;67.79;99281.77;1812237;78;21440;-68
2021/08/16 07:00:17;;;;;;;19.70;9.90;;;;;;;27.69;69.55;99278.18;1817423;77;20901;-67
2021/08/16 07:02:43;;;;;;;17.90;9.18;;;;;;;27.43;71.60;99275.68;1819614;77;21422;-67
2021/08/16 07:05:10;;;;;;;16.25;8.70;;;;;;;27.61;70.75;99277.30;1819838;78;20854;-67
2021/08/16 07:07:38;;;;;;;12.98;9.00;;;;;;;27.58;71.93;99284.92;1820489;78;21038;-67
2021/08/16 07:10:07;;;;;;;17.42;9.48;;;;;;;28.00;70.54;99291.58;1825145;78;21008;-67
2021/08/16 07:12:33;;;;;;;16.30;9.38;;;;;;;28.40;69.14;99291.38;1824528;78;22024;-67
2021/08/16 07:15:02;;;;;;;15.75;8.88;;;;;;;28.68;67.43;99296.96;1819118;78;21319;-67
2021/08/16 07:17:28;;;;;;;13.50;8.30;;;;;;;28.64;64.90;99300.30;1819581;77;20818;-67
2021/08/16 07:19:55;;;;;;;15.07;8.80;;;;;;;28.78;65.26;99303.16;1795163;78;21856;-67
2021/08/16 07:22:21;;;;;;;14.78;8.23;;;;;;;28.59;63.63;99299.25;1797990;78;20930;-67
2021/08/16 07:24:49;;;;;;;11.15;8.20;;;;;;;28.19;66.04;99307.72;1824771;78;20887;-67
2021/08/16 07:27:16;;;;;;;15.93;8.48;;;;;;;28.12;66.30;99300.74;1818471;78;20904;-67
2021/08/16 07:29:42;;;;;;;12.25;7.53;;;;;;;28.33;64.88;99305.70;1828966;78;20838;-67
2021/08/16 07:32:09;;;;;;;13.48;8.35;;;;;;;28.64;65.76;99303.06;1838560;78;21743;-67
2021/08/16 07:34:37;;;;;;;13.60;8.00;;;;;;;28.91;63.99;99301.47;1834475;78;20960;-67
2021/08/16 07:37:08;;;;;;;11.22;7.20;;;;;;;28.95;62.88;99300.92;1815211;78;21372;-66
2021/08/16 07:39:36;;;;;;;9.75;7.28;;;;;;;29.09;62.36;99295.53;1802481;79;20913;-67
2021/08/16 07:45:36;;;;;;;10.10;7.20;;;;;;;28.92;62.86;99295.58;1802264;79;21115;-66
2021/08/16 07:48:04;;;;;;;12.60;7.10;;;;;;;29.07;61.13;99295.11;1804057;78;20988;-66
2021/08/16 07:50:31;;;;;;;;;;;;;;;29.38;58.64;99305.38;1816467;78;21424;-65
2021/08/16 07:52:58;;;;;;;94.55;13.53;;;;;;;29.55;59.27;99307.44;1815492;79;20383;-66
2021/08/16 07:55:25;;;;;;;16.73;7.22;;;;;;;29.42;58.71;99304.79;1810858;78;21452;-66
2021/08/16 07:57:52;;;;;;;14.33;6.37;;;;;;;29.72;56.88;99310.69;1808117;78;21846;-65
2021/08/16 08:00:19;;;;;;;22.33;6.83;;;;;;;29.82;56.19;99298.30;1825740;78;21357;-66
2021/08/16 08:02:48;;;;;;;19.07;6.45;;;;;;;29.50;55.03;99298.14;1827944;78;21681;-66
2021/08/16 08:05:18;;;;;;;9.35;5.90;;;;;;;29.71;54.96;99293.30;1827905;78;21488;-66
2021/08/16 08:07:45;;;;;;;10.85;5.55;;;;;;;29.72;54.58;99294.09;1826633;78;20915;-67
2021/08/16 08:10:13;;;;;;;13.15;6.42;;;;;;;29.98;53.25;99297.94;1797952;78;21001;-66
2021/08/16 08:12:42;;;;;;;13.65;6.28;;;;;;;29.76;52.97;99292.92;1821062;78;20914;-66
2021/08/16 08:15:10;;;;;;;9.05;5.35;;;;;;;30.18;51.17;99291.45;1826030;78;21636;-67
2021/08/16 08:17:36;;;;;;;8.13;5.85;;;;;;;30.25;50.57;99288.73;1819278;78;20905;-66
2021/08/16 08:20:05;;;;;;;8.17;5.40;;;;;;;30.38;48.24;99285.58;1810187;78;21311;-66
2021/08/16 08:22:32;;;;;;;8.93;5.55;;;;;;;30.06;48.15;99282.14;1762152;80;21110;-65
2021/08/16 08:25:00;;;;;;;10.50;5.72;;;;;;;30.35;49.61;99283.02;1754007;81;21455;-66
2021/08/16 08:27:26;;;;;;;9.85;5.62;;;;;;;30.07;49.27;99271.28;1754655;81;21428;-65
2021/08/16 08:29:53;;;;;;;11.08;5.92;;;;;;;30.28;47.41;99269.16;1744660;81;21499;-64
2021/08/16 08:32:19;;;;;;;10.70;5.57;;;;;;;30.36;45.79;99247.23;1761320;81;21091;-66
2021/08/16 08:34:46;;;;;;;8.80;5.60;;;;;;;30.22;46.06;99264.59;1754881;81;21799;-64
2021/08/16 08:37:15;;;;;;;7.17;5.17;;;;;;;30.13;46.16;99269.13;1755247;81;21391;-63
2021/08/16 08:39:43;;;;;;;14.68;5.95;;;;;;;29.99;47.45;99258.03;1750114;81;21129;-63
2021/08/16 08:42:11;;;;;;;9.80;5.37;;;;;;;29.76;47.17;99265.27;1744558;81;20921;-64
2021/08/16 08:44:41;;;;;;;12.30;4.90;;;;;;;30.30;47.60;99264.81;1754216;81;21002;-62
2021/08/16 08:47:07;;;;;;;9.30;5.97;;;;;;;30.55;45.65;99261.30;1748762;81;21104;-66
2021/08/16 08:49:34;;;;;;;8.70;5.47;;;;;;;30.54;47.01;99268.00;1747524;81;20955;-65
2021/08/16 08:52:04;;;;;;;8.70;6.00;;;;;;;30.55;46.66;99266.23;1766377;81;20912;-66
2021/08/16 08:54:34;;;;;;;10.78;6.25;;;;;;;30.50;47.60;99267.20;1766343;81;20952;-65
2021/08/16 08:57:01;;;;;;;12.35;4.67;;;;;;;30.42;47.58;99263.64;1759579;81;20961;-63
2021/08/16 08:59:28;;;;;;;6.20;5.30;;;;;;;30.28;46.26;99251.17;1754248;81;21410;-64
2021/08/16 09:01:58;;;;;;;8.17;4.90;;;;;;;30.37;46.04;99268.78;1744504;81;20917;-66
2021/08/16 09:04:25;;;;;;;18.62;6.70;;;;;;;30.15;46.49;99262.41;1762063;81;20956;-67
2021/08/16 09:06:52;;;;;;;13.55;5.15;;;;;;;30.12;46.75;99266.75;1761888;81;20952;-66
2021/08/16 09:09:20;;;;;;;19.80;6.60;;;;;;;29.88;47.66;99271.82;1749325;81;21341;-66
2021/08/16 09:11:49;;;;;;;14.73;5.33;;;;;;;30.26;46.48;99267.41;1738799;81;25597;-66
2021/08/16 09:14:18;;;;;;;7.12;5.67;;;;;;;30.64;46.76;99260.88;1738878;82;20958;-66
2021/08/16 09:16:47;;;;;;;8.58;5.10;;;;;;;30.83;46.27;99260.50;1739019;82;21479;-65
2021/08/16 09:19:20;;;;;;;8.38;5.33;;;;;;;30.31;45.63;99260.09;1738862;81;21535;-66
2021/08/16 09:22:07;;;;;;;10.18;5.58;;;;;;;30.86;44.49;99245.05;1737613;81;21089;-67
2021/08/16 09:24:36;;;;;;;15.08;6.55;;;;;;;31.12;46.14;99256.30;1737390;82;21132;-66
2021/08/16 09:27:11;;;;;;;14.45;6.20;;;;;;;31.40;44.91;99252.05;1737346;82;21005;-66
2021/08/16 09:29:50;;;;;;;12.50;5.45;;;;;;;31.65;44.02;99249.77;1737747;81;21033;-66
2021/08/16 09:32:17;;;;;;;15.30;5.95;;;;;;;31.36;43.43;99242.95;1737521;81;21022;-66
2021/08/16 09:34:49;;;;;;;13.83;6.58;;;;;;;30.90;46.20;99247.23;1751633;81;21528;-65
2021/08/16 09:37:22;;;;;;;8.40;5.97;;;;;;;30.71;45.90;99242.27;1757052;81;21676;-66
2021/08/16 09:40:00;;;;;;;9.63;5.78;;;;;;;30.18;45.92;99248.55;1758042;81;20912;-66
2021/08/16 09:42:49;;;;;;;18.27;5.85;;;;;;;30.33;46.67;99241.11;1755089;81;20906;-66
2021/08/16 09:45:39;;;;;;;8.20;4.80;;;;;;;30.47;45.27;99234.77;1763600;81;20955;-67
2021/08/16 09:48:07;;;;;;;15.30;5.80;;;;;;;30.50;45.30;99236.73;1738496;82;21051;-68
2021/08/16 09:50:40;;;;;;;8.25;4.10;;;;;;;30.67;44.84;99240.69;1738535;82;20872;-66
2021/08/16 09:53:15;;;;;;;21.10;6.33;;;;;;;30.63;44.57;99226.07;1759570;81;21324;-65
2021/08/16 09:55:48;;;;;;;12.95;5.65;;;;;;;31.44;43.36;99236.02;1766799;81;20924;-67
2021/08/16 09:58:17;;;;;;;7.87;5.03;;;;;;;31.77;42.69;99235.44;1767161;81;20999;-64
2021/08/16 10:00:49;;;;;;;15.63;5.70;;;;;;;31.29;41.06;99202.77;1766001;81;21496;-65
2021/08/16 10:03:16;;;;;;;10.05;5.22;;;;;;;31.51;40.96;99238.77;1765288;81;21139;-66
2021/08/16 10:05:47;;;;;;;11.20;4.75;;;;;;;31.11;40.79;99223.61;1765825;81;21466;-66
2021/08/16 10:08:22;;;;;;;11.10;6.10;;;;;;;30.85;42.47;99233.19;1753223;81;20990;-65
2021/08/16 10:10:49;;;;;;;7.92;4.78;;;;;;;30.90;43.23;99228.63;1735193;82;20943;-68
2021/08/16 10:13:15;;;;;;;14.38;5.28;;;;;;;30.82;43.18;99219.30;1706274;82;21441;-68
2021/08/16 10:15:47;;;;;;;8.00;5.17;;;;;;;31.00;42.92;99210.39;1735827;82;21480;-68
2021/08/16 10:18:17;;;;;;;10.82;4.85;;;;;;;31.09;42.84;99221.04;1756277;81;21090;-67
2021/08/16 10:20:47;;;;;;;11.55;5.58;;;;;;;30.78;42.97;99215.77;1762718;81;20963;-67
2021/08/16 10:23:24;;;;;;;10.75;5.45;;;;;;;30.69;42.82;99222.48;1735913;81;21039;-68
2021/08/16 10:25:54;;;;;;;10.15;5.33;;;;;;;31.02;42.69;99221.88;1735675;81;21522;-67
2021/08/16 10:28:32;;;;;;;15.10;5.10;;;;;;;31.09;42.41;99208.00;1736250;81;20983;-68
2021/08/16 10:31:01;;;;;;;9.18;5.80;;;;;;;31.31;41.23;99205.12;1768946;81;28460;-68
2021/08/16 10:33:28;;;;;;;10.80;5.35;;;;;;;31.40;41.02;99214.63;1768514;81;20991;-67
2021/08/16 10:35:55;;;;;;;12.43;5.55;;;;;;;31.42;41.26;99202.36;1769066;81;21403;-67
2021/08/16 10:38:24;;;;;;;;;;;;;;;31.46;41.41;99200.36;1771883;81;21321;-68
2021/08/16 10:40:57;;;;;;;13.78;5.25;;;;;;;31.63;42.03;99198.09;1768200;80;21146;-68
2021/08/16 10:43:33;;;;;;;9.05;5.95;;;;;;;31.85;40.82;99204.88;1767003;80;21155;-68
2021/08/16 10:46:00;;;;;;;10.23;5.90;;;;;;;31.88;41.55;99208.25;1767187;80;20937;-68
2021/08/16 10:48:34;;;;;;;7.63;4.60;;;;;;;31.90;42.23;99195.55;1761296;80;21026;-68
2021/08/16 10:51:07;;;;;;;8.38;4.55;;;;;;;31.95;40.89;99192.37;1734009;81;21152;-68
2021/08/16 10:53:54;;;;;;;9.20;4.53;;;;;;;31.92;40.88;99199.28;1734537;82;21112;-68
2021/08/16 10:56:23;;;;;;;;;;;;;;;31.67;40.74;99186.36;1738021;82;21053;-68
2021/08/16 10:58:51;;;;;;;8.93;5.50;;;;;;;31.45;41.42;99192.62;1735541;81;20127;-68
2021/08/16 11:01:32;;;;;;;13.48;6.90;;;;;;;31.14;42.10;99190.17;1736733;81;20990;-67
2021/08/16 11:04:06;;;;;;;8.98;6.15;;;;;;;30.81;43.19;99191.41;1738913;82;20890;-67
2021/08/16 11:06:33;;;;;;;18.57;6.08;;;;;;;30.78;43.81;99188.84;1738890;82;21127;-67
2021/08/16 11:09:03;;;;;;;9.43;5.35;;;;;;;30.97;43.48;99191.80;1738798;82;21381;-67
2021/08/16 11:11:32;;;;;;;8.25;5.67;;;;;;;30.84;43.51;99181.72;1738909;82;21060;-66
2021/08/16 11:14:07;;;;;;;8.78;5.47;;;;;;;31.17;43.57;99190.74;1738629;82;20954;-67
2021/08/16 11:16:34;;;;;;;15.05;6.42;;;;;;;31.16;43.82;99184.42;1738678;82;21061;-67
2021/08/16 11:19:02;;;;;;;12.03;5.80;;;;;;;31.76;42.32;99184.53;1738724;82;21420;-67
2021/08/16 11:21:30;;;;;;;10.57;5.70;;;;;;;32.09;41.09;99185.12;1711575;82;20894;-67
2021/08/16 11:23:58;;;;;;;9.60;5.90;;;;;;;32.00;41.28;99187.77;1739037;82;20975;-67
2021/08/16 11:26:27;;;;;;;8.55;5.40;;;;;;;32.03;41.18;99184.17;1739053;82;20977;-67
2021/08/16 11:29:07;;;;;;;11.10;5.95;;;;;;;32.29;39.28;99180.61;1738038;82;21018;-67
2021/08/16 11:31:33;;;;;;;14.85;5.85;;;;;;;32.13;40.37;99186.67;1738050;82;21720;-67
2021/08/16 11:34:06;;;;;;;6.20;4.83;;;;;;;31.69;40.22;99179.81;1737622;82;21001;-67
2021/08/16 11:36:35;;;;;;;7.55;5.30;;;;;;;31.48;39.57;99173.80;1737603;81;21103;-66
2021/08/16 11:39:04;;;;;;;15.75;6.15;;;;;;;31.24;41.48;99155.28;1737642;82;20990;-68
2021/08/16 11:41:34;;;;;;;11.97;5.08;;;;;;;31.59;41.17;99148.77;1737553;82;21006;-68
2021/08/16 11:44:14;;;;;;;10.08;5.17;;;;;;;31.44;41.37;99165.31;1737569;82;21141;-68
2021/08/16 11:46:41;;;;;;;8.28;5.47;;;;;;;31.32;41.66;99159.59;1736871;82;20953;-68
2021/08/16 11:49:10;;;;;;;20.17;6.53;;;;;;;31.92;40.99;99150.72;1737733;81;21002;-68
2021/08/16 11:51:43;;;;;;;11.97;5.20;;;;;;;32.07;41.36;99149.46;1737591;81;20982;-68
2021/08/16 11:54:10;;;;;;;10.23;5.58;;;;;;;31.71;40.71;99153.84;1737587;81;21496;-66
2021/08/16 11:56:39;;;;;;;13.38;5.53;;;;;;;31.79;41.81;99151.81;1737747;82;21196;-66
2021/08/16 11:59:13;;;;;;;7.60;4.97;;;;;;;31.44;41.04;99145.30;1687696;82;20978;-66
2021/08/16 12:01:40;;;;;;;11.05;5.58;;;;;;;31.60;42.14;99139.24;1736353;81;21582;-66
2021/08/16 12:04:07;;;;;;;8.35;5.30;;;;;;;31.61;41.01;99143.61;1734644;81;21029;-66
2021/08/16 12:06:34;;;;;;;17.62;5.00;;;;;;;31.47;40.92;99141.70;1734858;82;21586;-66
2021/08/16 12:09:08;;;;;;;10.08;5.30;;;;;;;31.35;40.63;99142.92;1735022;82;21477;-66
2021/08/16 12:11:36;;;;;;;10.60;5.00;;;;;;;31.89;40.30;99137.67;1734460;82;21010;-66
2021/08/16 12:14:05;;;;;;;7.27;4.53;;;;;;;31.81;40.09;99130.78;1735018;82;21057;-67
2021/08/16 12:16:34;;;;;;;11.55;4.95;;;;;;;31.73;40.34;99133.42;1734915;82;21020;-66
2021/08/16 12:19:04;;;;;;;7.62;5.00;;;;;;;31.96;40.61;99125.94;1734918;82;20962;-66
2021/08/16 12:21:33;;;;;;;12.58;4.90;;;;;;;32.13;41.05;99124.82;1734747;81;21116;-66
2021/08/16 12:24:04;;;;;;;7.55;5.40;;;;;;;32.07;40.23;99124.48;1738249;81;20955;-65
2021/08/16 12:26:37;;;;;;;23.27;6.80;;;;;;;32.01;39.77;99120.55;1761307;81;21024;-65
2021/08/16 12:29:18;;;;;;;15.03;5.20;;;;;;;32.31;39.09;99112.94;1733406;81;21029;-66
2021/08/16 12:31:45;;;;;;;18.57;5.78;;;;;;;32.31;38.86;99116.31;1732613;82;21010;-65
2021/08/16 12:34:13;;;;;;;14.87;5.23;;;;;;;32.30;39.11;99117.53;1739245;81;21765;-66
2021/08/16 12:36:46;;;;;;;37.30;6.33;;;;;;;32.35;38.20;99112.31;1764908;81;21273;-66
2021/08/16 12:39:14;;;;;;;8.10;4.45;;;;;;;32.49;39.46;99106.44;1764397;80;21014;-66
2021/08/16 12:41:42;;;;;;;9.18;5.12;;;;;;;32.42;38.75;99111.45;1734972;80;20930;-67
2021/08/16 12:44:22;;;;;;;8.83;4.85;;;;;;;32.12;38.20;99112.94;1732195;82;21077;-68
2021/08/16 12:47:04;;;;;;;12.40;5.58;;;;;;;32.01;39.26;99113.01;1742963;81;21145;-67
2021/08/16 12:49:33;;;;;;;10.78;5.03;;;;;;;31.91;39.63;99108.91;1789414;79;20999;-67
2021/08/16 12:52:00;;;;;;;22.93;6.15;;;;;;;31.86;39.17;99103.80;1758711;81;21627;-66
2021/08/16 12:54:27;;;;;;;8.63;5.62;;;;;;;31.99;39.68;99102.13;1759813;81;21286;-67
2021/08/16 12:56:53;;;;;;;64.70;9.05;;;;;;;32.15;38.67;99104.38;1760500;81;21102;-66
2021/08/16 12:59:21;;;;;;;8.10;5.40;;;;;;;32.02;37.83;99098.52;1766238;79;22138;-66
2021/08/16 13:01:57;;;;;;;;;;;;;;;32.02;37.83;99098.52;1724623;81;21701;-66
2021/08/16 13:04:28;;;;;;;17.77;6.37;;;;;;;31.87;38.26;99107.54;1723207;83;20157;-67
2021/08/16 13:06:55;;;;;;;9.65;5.20;;;;;;;31.82;38.83;99101.86;1697123;83;20991;-66
2021/08/16 13:09:22;;;;;;;13.63;5.97;;;;;;;31.57;39.55;99106.78;1723331;83;21421;-66
2021/08/16 13:11:48;;;;;;;6.77;5.10;;;;;;;31.16;39.29;99097.68;1726146;81;21134;-66
2021/08/16 13:14:16;;;;;;;9.78;5.15;;;;;;;30.98;40.76;99104.70;1764212;81;21006;-68
2021/08/16 13:16:42;;;;;;;11.05;5.15;;;;;;;30.96;40.67;99093.22;1761328;81;21221;-68
2021/08/16 13:22:07;;;;;;;6.03;4.50;;;;;;;30.84;42.56;99091.69;1603674;88;22934;-68
2021/08/16 13:25:09;;;;;;;10.32;5.25;;;;;;;30.53;41.64;99091.38;1645407;86;21812;-66
2021/08/16 13:27:56;;;;;;;8.83;5.25;;;;;;;30.68;41.38;99085.80;1577043;88;21150;-66
2021/08/16 13:30:24;;;;;;;9.50;5.05;;;;;;;30.74;41.42;99084.96;1568342;90;21096;-68
2021/08/16 13:32:51;;;;;;;10.60;5.97;;;;;;;30.87;40.75;99090.09;1585107;90;21157;-67
2021/08/16 13:35:18;;;;;;;6.78;4.72;;;;;;;31.23;40.58;99092.70;1592174;90;21173;-66
2021/08/16 13:37:45;;;;;;;;;;;;;;;31.38;38.83;99074.78;1594586;90;21162;-67
2021/08/16 13:40:13;;;;;;;8.27;4.60;;;;;;;31.49;39.13;99078.91;1592471;90;20198;-66
2021/08/16 13:42:40;;;;;;;18.62;4.92;;;;;;;31.19;38.08;99080.27;1591770;90;21354;-67
2021/08/16 13:45:08;;;;;;;;;;;;;;;31.17;39.66;99086.80;1565816;90;21243;-67
2021/08/16 13:47:36;;;;;;;12.18;5.17;;;;;;;31.17;40.96;99084.03;1589511;88;20172;-67
2021/08/16 13:50:04;;;;;;;11.18;4.85;;;;;;;30.73;39.70;99077.86;1592870;90;21215;-65
2021/08/16 13:52:32;;;;;;;12.50;4.90;;;;;;;30.63;41.31;99070.98;1565366;88;21473;-67
2021/08/16 13:54:59;;;;;;;9.83;5.03;;;;;;;30.80;40.81;99072.11;1493603;96;21602;-67
2021/08/16 13:57:28;;;;;;;17.77;5.55;;;;;;;31.03;41.61;99068.25;1498251;93;21228;-64
2021/08/16 13:59:55;;;;;;;8.88;4.70;;;;;;;31.12;40.50;99060.89;1643233;84;21546;-68
2021/08/16 14:02:21;;;;;;;13.78;6.53;;;;;;;30.83;40.76;99052.72;1671874;84;22290;-66
2021/08/16 14:04:48;;;;;;;10.40;5.55;;;;;;;31.05;41.88;99059.55;1688495;81;20951;-68
2021/08/16 14:07:16;;;;;;;13.00;6.17;;;;;;;31.15;41.70;99042.84;1714161;81;21024;-68
2021/08/16 14:09:42;;;;;;;12.07;4.75;;;;;;;31.06;40.75;99050.03;1768508;81;20960;-68
2021/08/16 14:12:10;;;;;;;9.93;5.92;;;;;;;30.62;41.00;99051.38;1767951;81;21091;-66
2021/08/16 14:14:38;;;;;;;16.73;6.10;;;;;;;30.63;41.17;99046.05;1768177;81;20929;-68
2021/08/16 14:17:06;;;;;;;10.30;5.70;;;;;;;30.62;41.96;99040.30;1767716;81;21015;-68
2021/08/16 14:19:34;;;;;;;15.35;7.25;;;;;;;30.68;42.29;99038.71;1768318;81;20988;-66
2021/08/16 14:22:03;;;;;;;15.18;6.25;;;;;;;30.84;41.76;99036.28;1767810;81;21038;-68
2021/08/16 14:24:30;;;;;;;24.92;8.78;;;;;;;31.14;42.49;99030.19;1742816;81;20992;-66
2021/08/16 14:26:57;;;;;;;18.37;9.48;;;;;;;31.52;41.82;99032.34;1768494;81;21138;-66
2021/08/16 14:29:23;;;;;;;35.30;16.23;;;;;;;31.43;41.76;99032.00;1717856;81;21335;-67
2021/08/16 14:31:50;;;;;;;12.23;5.78;;;;;;;31.35;41.88;99032.02;1768040;81;21067;-67
2021/08/16 14:34:17;;;;;;;24.10;11.43;;;;;;;31.35;40.49;99022.92;1767817;81;21004;-67
2021/08/16 14:36:44;;;;;;;22.93;11.47;;;;;;;31.37;39.78;99025.47;1760584;81;21007;-67
2021/08/16 14:39:11;;;;;;;19.40;9.15;;;;;;;31.13;41.53;99021.67;1724677;81;21892;-67
2021/08/16 14:41:38;;;;;;;16.75;8.28;;;;;;;31.10;41.99;99028.63;1721129;83;21043;-66
2021/08/16 14:44:05;;;;;;;13.08;6.15;;;;;;;30.75;41.97;99031.77;1723442;82;20955;-67
2021/08/16 14:46:32;;;;;;;10.78;6.85;;;;;;;30.24;39.65;99020.63;1705894;83;21499;-66
2021/08/16 14:48:59;;;;;;;20.55;8.38;;;;;;;29.93;39.99;99025.03;1726328;82;21070;-67
2021/08/16 14:51:26;;;;;;;22.03;10.77;;;;;;;29.77;40.52;99020.70;1731415;81;22237;-67
2021/08/16 14:53:53;;;;;;;17.82;9.88;;;;;;;29.54;41.49;99021.05;1752434;81;21657;-67
2021/08/16 14:56:20;;;;;;;24.02;11.80;;;;;;;29.49;41.88;99015.92;1769856;80;21010;-68
2021/08/16 14:58:48;;;;;;;56.92;16.77;;;;;;;29.43;42.14;99014.75;1723270;81;21083;-67
2021/08/16 15:01:16;;;;;;;27.13;12.07;;;;;;;29.42;42.03;99011.20;1733010;81;21031;-68
2021/08/16 15:03:42;;;;;;;38.25;17.48;;;;;;;29.42;42.26;99011.77;1745576;80;21542;-68
2021/08/16 15:06:09;;;;;;;27.80;13.78;;;;;;;29.43;42.38;99009.22;1754614;80;22363;-68
2021/08/16 15:08:36;;;;;;;43.05;12.33;;;;;;;29.44;42.83;99008.81;1778462;80;21028;-69
2021/08/16 15:11:04;;;;;;;30.77;8.78;;;;;;;29.48;43.26;99006.06;1779586;80;21072;-69
2021/08/16 15:13:35;;;;;;;15.70;8.88;;;;;;;29.40;43.07;99007.22;1778512;80;21036;-67
2021/08/16 15:16:04;;;;;;;11.30;6.00;;;;;;;29.39;43.99;99004.27;1754815;80;21246;-67
2021/08/16 15:18:33;;;;;;;18.52;8.15;;;;;;;29.33;44.08;98996.19;1778170;80;21648;-68
2021/08/16 15:20:59;;;;;;;15.03;7.95;;;;;;;29.20;44.52;98992.42;1774490;80;20966;-67
2021/08/16 15:23:28;;;;;;;26.62;10.10;;;;;;;29.14;44.41;98995.95;1773861;80;21052;-67
2021/08/16 15:25:55;;;;;;;19.27;8.45;;;;;;;29.08;44.65;98994.75;1778314;80;21068;-67
2021/08/16 15:28:23;;;;;;;20.65;8.80;;;;;;;29.01;45.56;98992.75;1774809;80;21136;-68
2021/08/16 15:30:52;;;;;;;18.42;8.80;;;;;;;28.93;45.88;98991.14;1773691;80;21072;-68
2021/08/16 15:33:19;;;;;;;16.05;8.20;;;;;;;28.82;46.72;98989.74;1711955;81;20971;-67
2021/08/16 15:35:46;;;;;;;25.35;8.45;;;;;;;28.75;47.59;98980.05;1753419;80;21035;-67
2021/08/16 15:38:13;;;;;;;36.83;8.73;;;;;;;28.75;47.55;98985.58;1751692;81;21042;-67
2021/08/16 15:40:40;;;;;;;17.93;6.47;;;;;;;28.83;47.71;98983.84;1737738;81;21202;-67
2021/08/16 15:43:07;;;;;;;21.25;7.62;;;;;;;28.83;47.71;98983.84;1751700;80;21702;-67
2021/08/16 15:45:35;;;;;;;17.77;6.53;;;;;;;28.86;47.79;98979.50;1724882;80;20972;-68
2021/08/16 15:48:03;;;;;;;21.23;6.47;;;;;;;28.83;48.05;98974.17;1744903;81;20915;-68
2021/08/16 15:50:29;;;;;;;24.27;7.90;;;;;;;28.78;48.39;98968.22;1749828;81;20948;-67
2021/08/16 15:52:56;;;;;;;19.90;7.53;;;;;;;28.67;48.79;98961.30;1756482;81;21100;-68
2021/08/16 15:55:22;;;;;;;14.65;6.42;;;;;;;28.60;49.36;98962.66;1748059;81;20866;-67
2021/08/16 15:57:49;;;;;;;16.57;6.47;;;;;;;28.50;49.10;98964.20;1756903;81;21330;-65
2021/08/16 16:00:18;;;;;;;14.15;7.22;;;;;;;28.39;49.57;98961.94;1740437;80;20939;-67
2021/08/16 16:02:44;;;;;;;24.23;9.30;;;;;;;28.28;50.28;98963.28;1760417;81;20974;-66
2021/08/16 16:05:12;;;;;;;27.35;12.65;;;;;;;28.14;50.83;98965.37;1763483;81;21876;-67
2021/08/16 16:07:39;;;;;;;33.42;15.53;;;;;;;28.03;51.73;98968.68;1758746;81;21101;-67
2021/08/16 16:10:08;;;;;;;50.05;21.45;;;;;;;27.93;52.16;98970.20;1762498;81;21358;-66
2021/08/16 16:12:36;;;;;;;48.40;20.17;;;;;;;27.80;52.52;98972.42;1742120;80;21355;-65
2021/08/16 16:15:06;;;;;;;40.65;19.50;;;;;;;27.71;52.66;98970.61;1759710;81;21049;-65
2021/08/16 16:17:36;;;;;;;44.35;21.20;;;;;;;27.64;52.98;98975.28;1762390;81;20887;-66
2021/08/16 16:20:04;;;;;;;54.58;25.32;;;;;;;27.56;53.54;98979.36;1734940;82;20928;-66
2021/08/16 16:22:31;;;;;;;54.23;23.85;;;;;;;27.49;53.55;98978.52;1755189;81;20971;-67
2021/08/16 16:24:58;;;;;;;36.03;17.42;;;;;;;27.44;54.03;98973.33;1730633;81;21114;-66
2021/08/16 16:27:25;;;;;;;45.43;14.47;;;;;;;27.35;53.88;98973.08;1749488;81;21066;-64
2021/08/16 16:29:51;;;;;;;23.65;9.13;;;;;;;27.27;54.91;98970.06;1760660;81;21124;-63
2021/08/16 16:32:18;;;;;;;21.62;8.20;;;;;;;27.16;54.66;98969.91;1759849;81;20979;-67
2021/08/16 16:34:45;;;;;;;27.70;8.95;;;;;;;27.07;55.09;98970.83;1760001;81;21430;-67
2021/08/16 16:37:19;;;;;;;23.75;8.53;;;;;;;26.96;55.68;98965.80;1760017;81;21039;-65
2021/08/16 16:40:23;;;;;;;21.50;7.45;;;;;;;26.87;56.56;98966.08;1759431;81;21659;-64
2021/08/16 16:42:58;;;;;;;13.13;7.10;;;;;;;26.78;56.84;98966.98;1761310;81;21145;-65
2021/08/16 16:45:25;;;;;;;14.85;7.17;;;;;;;26.69;56.81;98963.73;1756056;81;21074;-66
2021/08/16 16:48:12;;;;;;;19.17;7.40;;;;;;;26.62;57.29;98969.16;1761928;81;21023;-66
2021/08/16 16:50:38;;;;;;;21.20;7.35;;;;;;;26.59;57.40;98967.95;1729133;81;20967;-65
2021/08/16 16:53:05;;;;;;;15.40;6.80;;;;;;;26.52;57.76;98973.34;1729810;82;21051;-64
2021/08/16 16:55:36;;;;;;;21.17;8.30;;;;;;;26.48;57.95;98975.24;1729761;82;21133;-63
2021/08/16 16:58:05;;;;;;;30.30;11.43;;;;;;;26.42;57.67;98975.38;1729530;82;21446;-64
2021/08/16 17:00:32;;;;;;;43.83;14.43;;;;;;;26.37;58.58;98976.50;1731398;82;20892;-64
2021/08/16 17:02:58;;;;;;;32.40;12.50;;;;;;;26.28;58.76;98975.39;1751043;81;21466;-65
2021/08/16 17:05:25;;;;;;;19.73;9.73;;;;;;;26.21;59.72;98977.26;1714412;82;20951;-65
2021/08/16 17:07:53;;;;;;;20.75;8.95;;;;;;;26.10;59.93;98982.63;1734714;82;22155;-64
2021/08/16 17:10:19;;;;;;;19.35;8.48;;;;;;;26.01;60.00;98980.13;1734584;82;20979;-63
2021/08/16 17:12:47;;;;;;;17.65;7.65;;;;;;;25.98;60.30;98982.84;1732271;81;21050;-64
2021/08/16 17:15:15;;;;;;;17.27;7.80;;;;;;;25.91;60.79;98988.23;1697544;84;21019;-64
2021/08/16 17:20:22;;;;;;;15.60;7.75;;;;;;;25.79;61.10;98981.74;1839751;78;22719;-64
2021/08/16 17:22:50;;;;;;;27.80;8.80;;;;;;;25.70;61.67;98986.73;1815181;79;20975;-65
2021/08/16 17:25:19;;;;;;;27.35;7.92;;;;;;;25.68;61.63;98987.67;1805228;78;20981;-66
2021/08/16 17:27:45;;;;;;;25.60;7.67;;;;;;;25.62;61.94;98987.76;1828296;78;20968;-65
2021/08/16 17:30:13;;;;;;;23.07;8.85;;;;;;;25.57;62.57;98991.60;1828731;78;21525;-65
2021/08/16 17:32:39;;;;;;;15.33;7.17;;;;;;;25.54;62.94;98988.81;1828695;78;21604;-65
2021/08/16 17:35:08;;;;;;;15.18;7.60;;;;;;;25.45;62.98;98987.13;1828579;78;21509;-66
2021/08/16 17:37:35;;;;;;;32.05;9.58;;;;;;;25.45;63.18;98987.67;1830198;78;21142;-65
2021/08/16 17:40:01;;;;;;;47.25;23.77;;;;;;;25.41;63.10;98999.99;1829933;78;20901;-67
2021/08/16 17:42:28;;;;;;;22.25;7.70;;;;;;;25.43;63.98;98996.30;1827451;78;21368;-65
2021/08/16 17:44:55;;;;;;;24.85;9.35;;;;;;;25.33;63.66;98991.98;1816539;78;21693;-65